Airfield :
LOGIN :

Register | Disclaimer

   EN    FR    IT 

 










Legend :    VFR   Marginal VFR   IFR   Intensive IFR   Very Intensive IFR
Visi :
Ceiling :
>= 8 km
>= 3000ft
5 to 8 km
1000 to 3000 ft
1500m to 5 km
500 to 1000 ft
800 to 1500m
200 to 500 ft
< 800m
< 200 ft
Symbols :   Thunderstorms  Fog  Heavy snow  Heavy precipitations  Wind > 20 kt
SIGMETs :     Misc.  Thunderstorms  Icing  Turbulence  Mountain Waves  Volcanic Ashes







- Airport Elevation : 336 ft
- IATA code : GCI
- Download approach charts


EGJB - Guernsey

CURRENT METAR :
  • 230450Z 09004KT 9999 FEW020 07/06 Q1026

EXPIRED METARs :
  • 230420Z 09005KT CAVOK 06/06 Q1026
  • 230350Z 09004KT CAVOK 07/06 Q1026
  • 230320Z 09005KT CAVOK 06/05 Q1026
  • 230250Z 11003KT CAVOK 07/06 Q1026

TAF TAF EGJB
Valid from the 23 at 03:00 until the 23 at 12:00 UTC


230156Z 2303/2312 10007KT CAVOK
TEMPO 2304/2306 5000 BR
ATIS : +44 1481 238 957
No reported NOTAMs for that airfield.



MET'MAP, your aeronautical weather chart ! - Copyright ORBIFLY December 2007 - Disclaimer

ORBIFLY MET'MAP TEAM :

Programming & Development : Alexandra Zaïnal
Concept & Development : Baudouin d'Aumeries
Co-Development & Prog : Marc-Olivier Méhu
Technical & hardware support : Manuel Goepfert

Contact : metmap@orbifly.com




SOURCES & CREDITS :

   NOAA